sensor_id;sensor_type;location;lat;lon;timestamp;P1;durP1;ratioP1;P2;durP2;ratioP2
13708;SDS011;54933;51.908;7.730;2022-07-24T00:01:45;0.90;;;0.90;;
13708;SDS011;54933;51.908;7.730;2022-07-24T00:04:10;1.00;;;1.00;;
13708;SDS011;54933;51.908;7.730;2022-07-24T00:06:36;1.00;;;1.00;;
13708;SDS011;54933;51.908;7.730;2022-07-24T00:09:02;1.10;;;1.10;;
13708;SDS011;54933;51.908;7.730;2022-07-24T00:11:28;1.00;;;1.00;;
13708;SDS011;54933;51.908;7.730;2022-07-24T00:13:53;0.97;;;0.97;;
13708;SDS011;54933;51.908;7.730;2022-07-24T00:16:19;1.00;;;1.00;;
13708;SDS011;54933;51.908;7.730;2022-07-24T00:18:44;1.20;;;1.20;;
13708;SDS011;54933;51.908;7.730;2022-07-24T00:21:10;1.07;;;1.07;;
13708;SDS011;54933;51.908;7.730;2022-07-24T00:23:35;1.00;;;1.00;;
13708;SDS011;54933;51.908;7.730;2022-07-24T00:26:01;1.20;;;1.20;;
13708;SDS011;54933;51.908;7.730;2022-07-24T00:28:27;0.90;;;0.90;;
13708;SDS011;54933;51.908;7.730;2022-07-24T00:30:52;1.00;;;1.00;;
13708;SDS011;54933;51.908;7.730;2022-07-24T00:33:17;1.07;;;1.07;;
13708;SDS011;54933;51.908;7.730;2022-07-24T00:35:43;1.00;;;1.00;;
13708;SDS011;54933;51.908;7.730;2022-07-24T00:38:09;0.87;;;0.87;;
13708;SDS011;54933;51.908;7.730;2022-07-24T00:40:35;1.00;;;1.00;;
13708;SDS011;54933;51.908;7.730;2022-07-24T00:43:01;1.37;;;1.27;;
13708;SDS011;54933;51.908;7.730;2022-07-24T00:45:27;1.03;;;1.03;;
13708;SDS011;54933;51.908;7.730;2022-07-24T00:47:52;1.10;;;1.10;;
13708;SDS011;54933;51.908;7.730;2022-07-24T00:50:18;0.97;;;0.97;;
13708;SDS011;54933;51.908;7.730;2022-07-24T00:52:46;1.10;;;1.10;;
13708;SDS011;54933;51.908;7.730;2022-07-24T00:55:12;1.37;;;1.33;;
13708;SDS011;54933;51.908;7.730;2022-07-24T00:57:37;1.13;;;1.13;;
13708;SDS011;54933;51.908;7.730;2022-07-24T01:00:04;0.90;;;0.90;;
13708;SDS011;54933;51.908;7.730;2022-07-24T01:02:31;1.10;;;1.10;;
13708;SDS011;54933;51.908;7.730;2022-07-24T01:04:56;1.00;;;1.00;;
13708;SDS011;54933;51.908;7.730;2022-07-24T01:07:22;1.13;;;1.13;;
13708;SDS011;54933;51.908;7.730;2022-07-24T01:09:47;1.20;;;1.20;;
13708;SDS011;54933;51.908;7.730;2022-07-24T01:12:12;1.03;;;1.03;;
13708;SDS011;54933;51.908;7.730;2022-07-24T01:14:38;1.00;;;1.00;;
13708;SDS011;54933;51.908;7.730;2022-07-24T01:17:04;1.20;;;1.20;;
13708;SDS011;54933;51.908;7.730;2022-07-24T01:19:30;1.13;;;1.13;;
13708;SDS011;54933;51.908;7.730;2022-07-24T01:21:55;1.10;;;1.10;;
13708;SDS011;54933;51.908;7.730;2022-07-24T01:24:21;1.00;;;1.00;;
13708;SDS011;54933;51.908;7.730;2022-07-24T01:26:47;1.20;;;1.20;;
13708;SDS011;54933;51.908;7.730;2022-07-24T01:29:12;1.10;;;1.10;;
13708;SDS011;54933;51.908;7.730;2022-07-24T01:31:38;1.47;;;1.10;;
13708;SDS011;54933;51.908;7.730;2022-07-24T01:34:04;1.27;;;1.13;;
13708;SDS011;54933;51.908;7.730;2022-07-24T01:36:29;1.13;;;1.13;;
13708;SDS011;54933;51.908;7.730;2022-07-24T01:38:55;0.90;;;0.90;;
13708;SDS011;54933;51.908;7.730;2022-07-24T01:41:20;1.10;;;1.10;;
13708;SDS011;54933;51.908;7.730;2022-07-24T01:43:45;1.20;;;1.20;;
13708;SDS011;54933;51.908;7.730;2022-07-24T01:46:11;1.10;;;1.10;;
13708;SDS011;54933;51.908;7.730;2022-07-24T01:48:37;1.50;;;1.37;;
13708;SDS011;54933;51.908;7.730;2022-07-24T01:51:03;1.00;;;1.00;;
13708;SDS011;54933;51.908;7.730;2022-07-24T01:53:28;0.97;;;0.97;;
13708;SDS011;54933;51.908;7.730;2022-07-24T01:55:53;1.07;;;1.07;;
13708;SDS011;54933;51.908;7.730;2022-07-24T01:58:19;1.10;;;1.10;;
13708;SDS011;54933;51.908;7.730;2022-07-24T02:00:44;1.10;;;1.10;;
13708;SDS011;54933;51.908;7.730;2022-07-24T02:03:10;0.90;;;0.90;;
13708;SDS011;54933;51.908;7.730;2022-07-24T02:05:36;1.10;;;1.10;;
13708;SDS011;54933;51.908;7.730;2022-07-24T02:08:01;0.90;;;0.90;;
13708;SDS011;54933;51.908;7.730;2022-07-24T02:10:27;1.00;;;1.00;;
13708;SDS011;54933;51.908;7.730;2022-07-24T02:12:53;1.00;;;1.00;;
13708;SDS011;54933;51.908;7.730;2022-07-24T02:15:19;1.10;;;1.10;;
13708;SDS011;54933;51.908;7.730;2022-07-24T02:17:45;1.00;;;1.00;;
13708;SDS011;54933;51.908;7.730;2022-07-24T02:20:18;1.10;;;1.10;;
13708;SDS011;54933;51.908;7.730;2022-07-24T02:22:45;0.90;;;0.90;;
13708;SDS011;54933;51.908;7.730;2022-07-24T02:25:10;1.00;;;1.00;;
13708;SDS011;54933;51.908;7.730;2022-07-24T02:27:36;1.00;;;1.00;;
13708;SDS011;54933;51.908;7.730;2022-07-24T02:30:03;0.70;;;0.70;;
13708;SDS011;54933;51.908;7.730;2022-07-24T02:32:30;1.10;;;1.10;;
13708;SDS011;54933;51.908;7.730;2022-07-24T02:34:56;0.93;;;0.93;;
13708;SDS011;54933;51.908;7.730;2022-07-24T02:37:21;0.97;;;0.97;;
13708;SDS011;54933;51.908;7.730;2022-07-24T02:39:46;1.17;;;1.17;;
13708;SDS011;54933;51.908;7.730;2022-07-24T02:42:11;0.90;;;0.90;;
13708;SDS011;54933;51.908;7.730;2022-07-24T02:44:37;1.30;;;1.30;;
13708;SDS011;54933;51.908;7.730;2022-07-24T02:47:02;1.10;;;1.10;;
13708;SDS011;54933;51.908;7.730;2022-07-24T02:49:27;0.90;;;0.90;;
13708;SDS011;54933;51.908;7.730;2022-07-24T02:51:53;1.00;;;1.00;;
13708;SDS011;54933;51.908;7.730;2022-07-24T02:54:18;1.00;;;1.00;;
13708;SDS011;54933;51.908;7.730;2022-07-24T02:56:43;0.90;;;0.90;;
13708;SDS011;54933;51.908;7.730;2022-07-24T02:59:08;1.00;;;1.00;;
13708;SDS011;54933;51.908;7.730;2022-07-24T03:01:34;0.90;;;0.90;;
13708;SDS011;54933;51.908;7.730;2022-07-24T03:03:59;1.10;;;1.10;;
13708;SDS011;54933;51.908;7.730;2022-07-24T03:06:24;0.90;;;0.90;;
13708;SDS011;54933;51.908;7.730;2022-07-24T03:08:50;1.10;;;1.10;;
13708;SDS011;54933;51.908;7.730;2022-07-24T03:11:15;1.13;;;1.10;;
13708;SDS011;54933;51.908;7.730;2022-07-24T03:13:40;1.20;;;1.20;;
13708;SDS011;54933;51.908;7.730;2022-07-24T03:16:06;1.10;;;1.10;;
13708;SDS011;54933;51.908;7.730;2022-07-24T03:18:31;1.10;;;1.10;;
13708;SDS011;54933;51.908;7.730;2022-07-24T03:20:57;1.07;;;1.07;;
13708;SDS011;54933;51.908;7.730;2022-07-24T03:23:22;1.10;;;1.10;;
13708;SDS011;54933;51.908;7.730;2022-07-24T03:25:47;0.93;;;0.93;;
13708;SDS011;54933;51.908;7.730;2022-07-24T03:28:13;1.10;;;1.10;;
13708;SDS011;54933;51.908;7.730;2022-07-24T03:30:38;1.10;;;1.10;;
13708;SDS011;54933;51.908;7.730;2022-07-24T03:33:03;1.10;;;1.10;;
13708;SDS011;54933;51.908;7.730;2022-07-24T03:35:29;0.90;;;0.90;;
13708;SDS011;54933;51.908;7.730;2022-07-24T03:37:54;1.00;;;1.00;;
13708;SDS011;54933;51.908;7.730;2022-07-24T03:40:19;1.10;;;1.10;;
13708;SDS011;54933;51.908;7.730;2022-07-24T03:42:45;1.00;;;1.00;;
13708;SDS011;54933;51.908;7.730;2022-07-24T03:45:10;1.10;;;1.10;;
13708;SDS011;54933;51.908;7.730;2022-07-24T03:47:35;1.07;;;1.07;;
13708;SDS011;54933;51.908;7.730;2022-07-24T03:50:01;1.10;;;1.10;;
13708;SDS011;54933;51.908;7.730;2022-07-24T03:52:27;1.03;;;1.03;;
13708;SDS011;54933;51.908;7.730;2022-07-24T03:54:52;0.80;;;0.80;;
13708;SDS011;54933;51.908;7.730;2022-07-24T03:57:18;1.20;;;1.20;;
13708;SDS011;54933;51.908;7.730;2022-07-24T03:59:43;0.80;;;0.80;;
13708;SDS011;54933;51.908;7.730;2022-07-24T04:02:08;1.20;;;1.20;;
13708;SDS011;54933;51.908;7.730;2022-07-24T04:04:33;1.10;;;1.10;;
13708;SDS011;54933;51.908;7.730;2022-07-24T04:06:59;0.93;;;0.93;;
13708;SDS011;54933;51.908;7.730;2022-07-24T04:09:24;1.00;;;1.00;;
13708;SDS011;54933;51.908;7.730;2022-07-24T04:11:49;1.03;;;1.03;;
13708;SDS011;54933;51.908;7.730;2022-07-24T04:14:14;1.20;;;1.10;;
13708;SDS011;54933;51.908;7.730;2022-07-24T04:16:40;0.83;;;0.83;;
13708;SDS011;54933;51.908;7.730;2022-07-24T04:19:05;1.13;;;1.13;;
13708;SDS011;54933;51.908;7.730;2022-07-24T04:21:30;1.00;;;1.00;;
13708;SDS011;54933;51.908;7.730;2022-07-24T04:23:56;1.20;;;1.20;;
13708;SDS011;54933;51.908;7.730;2022-07-24T04:26:21;1.00;;;1.00;;
13708;SDS011;54933;51.908;7.730;2022-07-24T04:28:47;1.00;;;1.00;;
13708;SDS011;54933;51.908;7.730;2022-07-24T04:31:12;1.10;;;1.10;;
13708;SDS011;54933;51.908;7.730;2022-07-24T04:33:37;1.20;;;1.20;;
13708;SDS011;54933;51.908;7.730;2022-07-24T04:36:03;1.00;;;1.00;;
13708;SDS011;54933;51.908;7.730;2022-07-24T04:38:31;0.90;;;0.90;;
13708;SDS011;54933;51.908;7.730;2022-07-24T04:40:57;1.03;;;1.03;;
13708;SDS011;54933;51.908;7.730;2022-07-24T04:43:22;1.10;;;1.10;;
13708;SDS011;54933;51.908;7.730;2022-07-24T04:45:47;1.27;;;1.17;;
13708;SDS011;54933;51.908;7.730;2022-07-24T04:48:13;1.13;;;1.13;;
13708;SDS011;54933;51.908;7.730;2022-07-24T04:50:38;1.00;;;1.00;;
13708;SDS011;54933;51.908;7.730;2022-07-24T04:53:03;1.00;;;1.00;;
13708;SDS011;54933;51.908;7.730;2022-07-24T04:55:28;1.40;;;1.40;;
13708;SDS011;54933;51.908;7.730;2022-07-24T04:57:54;1.10;;;1.10;;
13708;SDS011;54933;51.908;7.730;2022-07-24T05:00:19;1.20;;;1.10;;
13708;SDS011;54933;51.908;7.730;2022-07-24T05:02:44;1.30;;;1.30;;
13708;SDS011;54933;51.908;7.730;2022-07-24T05:05:09;1.00;;;1.00;;
13708;SDS011;54933;51.908;7.730;2022-07-24T05:07:35;1.20;;;1.20;;
13708;SDS011;54933;51.908;7.730;2022-07-24T05:10:00;1.20;;;1.20;;
13708;SDS011;54933;51.908;7.730;2022-07-24T05:12:26;1.27;;;1.27;;
13708;SDS011;54933;51.908;7.730;2022-07-24T05:14:51;1.17;;;1.17;;
13708;SDS011;54933;51.908;7.730;2022-07-24T05:17:17;1.10;;;1.10;;
13708;SDS011;54933;51.908;7.730;2022-07-24T05:19:42;1.10;;;1.10;;
13708;SDS011;54933;51.908;7.730;2022-07-24T05:22:07;1.23;;;1.23;;
13708;SDS011;54933;51.908;7.730;2022-07-24T05:24:33;1.07;;;1.07;;
13708;SDS011;54933;51.908;7.730;2022-07-24T05:26:58;1.63;;;1.53;;
13708;SDS011;54933;51.908;7.730;2022-07-24T05:29:23;1.40;;;1.40;;
13708;SDS011;54933;51.908;7.730;2022-07-24T05:31:49;1.40;;;1.40;;
13708;SDS011;54933;51.908;7.730;2022-07-24T05:34:16;1.13;;;1.13;;
13708;SDS011;54933;51.908;7.730;2022-07-24T05:36:41;1.43;;;1.40;;
13708;SDS011;54933;51.908;7.730;2022-07-24T05:39:07;1.40;;;1.30;;
13708;SDS011;54933;51.908;7.730;2022-07-24T05:41:32;1.20;;;1.20;;
13708;SDS011;54933;51.908;7.730;2022-07-24T05:43:57;0.90;;;0.90;;
13708;SDS011;54933;51.908;7.730;2022-07-24T05:46:22;1.20;;;1.20;;
13708;SDS011;54933;51.908;7.730;2022-07-24T05:48:48;1.17;;;1.17;;
13708;SDS011;54933;51.908;7.730;2022-07-24T05:51:13;1.10;;;1.10;;
13708;SDS011;54933;51.908;7.730;2022-07-24T05:53:39;1.20;;;1.20;;
13708;SDS011;54933;51.908;7.730;2022-07-24T05:56:04;1.10;;;1.10;;
13708;SDS011;54933;51.908;7.730;2022-07-24T05:58:29;1.10;;;1.10;;
13708;SDS011;54933;51.908;7.730;2022-07-24T06:00:55;1.20;;;1.20;;
13708;SDS011;54933;51.908;7.730;2022-07-24T06:03:20;1.10;;;1.10;;
13708;SDS011;54933;51.908;7.730;2022-07-24T06:05:46;0.97;;;0.97;;
13708;SDS011;54933;51.908;7.730;2022-07-24T06:08:11;1.40;;;1.30;;
13708;SDS011;54933;51.908;7.730;2022-07-24T06:10:36;1.10;;;1.10;;
13708;SDS011;54933;51.908;7.730;2022-07-24T06:13:01;1.10;;;1.10;;
13708;SDS011;54933;51.908;7.730;2022-07-24T06:15:27;1.43;;;1.43;;
13708;SDS011;54933;51.908;7.730;2022-07-24T06:17:52;1.20;;;1.20;;
13708;SDS011;54933;51.908;7.730;2022-07-24T06:20:17;1.20;;;1.20;;
13708;SDS011;54933;51.908;7.730;2022-07-24T06:22:43;1.00;;;1.00;;
13708;SDS011;54933;51.908;7.730;2022-07-24T06:25:09;1.30;;;1.30;;
13708;SDS011;54933;51.908;7.730;2022-07-24T06:27:42;1.00;;;1.00;;
13708;SDS011;54933;51.908;7.730;2022-07-24T06:30:12;1.40;;;1.40;;
13708;SDS011;54933;51.908;7.730;2022-07-24T06:32:41;1.30;;;1.30;;
13708;SDS011;54933;51.908;7.730;2022-07-24T06:35:06;1.20;;;1.20;;
13708;SDS011;54933;51.908;7.730;2022-07-24T06:37:32;1.20;;;1.20;;
13708;SDS011;54933;51.908;7.730;2022-07-24T06:39:58;1.07;;;1.07;;
13708;SDS011;54933;51.908;7.730;2022-07-24T06:42:23;1.40;;;1.30;;
13708;SDS011;54933;51.908;7.730;2022-07-24T06:44:48;1.50;;;1.40;;
13708;SDS011;54933;51.908;7.730;2022-07-24T06:47:14;1.40;;;1.30;;
13708;SDS011;54933;51.908;7.730;2022-07-24T06:49:39;1.10;;;1.10;;
13708;SDS011;54933;51.908;7.730;2022-07-24T06:52:04;1.40;;;1.40;;
13708;SDS011;54933;51.908;7.730;2022-07-24T06:54:30;1.10;;;1.10;;
13708;SDS011;54933;51.908;7.730;2022-07-24T06:56:55;1.20;;;1.20;;
13708;SDS011;54933;51.908;7.730;2022-07-24T06:59:20;1.30;;;1.30;;
13708;SDS011;54933;51.908;7.730;2022-07-24T07:01:46;1.10;;;1.10;;
13708;SDS011;54933;51.908;7.730;2022-07-24T07:04:11;1.27;;;1.27;;
13708;SDS011;54933;51.908;7.730;2022-07-24T07:06:36;1.17;;;1.13;;
13708;SDS011;54933;51.908;7.730;2022-07-24T07:09:01;1.30;;;1.30;;
13708;SDS011;54933;51.908;7.730;2022-07-24T07:11:27;1.40;;;1.40;;
13708;SDS011;54933;51.908;7.730;2022-07-24T07:13:52;1.23;;;1.20;;
13708;SDS011;54933;51.908;7.730;2022-07-24T07:16:17;1.37;;;1.30;;
13708;SDS011;54933;51.908;7.730;2022-07-24T07:18:43;1.37;;;1.27;;
13708;SDS011;54933;51.908;7.730;2022-07-24T07:21:08;1.17;;;1.17;;
13708;SDS011;54933;51.908;7.730;2022-07-24T07:23:33;1.20;;;1.20;;
13708;SDS011;54933;51.908;7.730;2022-07-24T07:25:59;1.00;;;1.00;;
13708;SDS011;54933;51.908;7.730;2022-07-24T07:28:24;1.37;;;1.37;;
13708;SDS011;54933;51.908;7.730;2022-07-24T07:30:49;1.20;;;1.20;;
13708;SDS011;54933;51.908;7.730;2022-07-24T07:33:14;1.00;;;1.00;;
13708;SDS011;54933;51.908;7.730;2022-07-24T07:35:40;1.30;;;1.30;;
13708;SDS011;54933;51.908;7.730;2022-07-24T07:38:05;1.43;;;1.33;;
13708;SDS011;54933;51.908;7.730;2022-07-24T07:40:30;1.30;;;1.30;;
13708;SDS011;54933;51.908;7.730;2022-07-24T07:42:55;1.10;;;1.10;;
13708;SDS011;54933;51.908;7.730;2022-07-24T07:45:21;1.30;;;1.30;;
13708;SDS011;54933;51.908;7.730;2022-07-24T07:47:46;1.20;;;1.20;;
13708;SDS011;54933;51.908;7.730;2022-07-24T07:50:12;1.43;;;1.43;;
13708;SDS011;54933;51.908;7.730;2022-07-24T07:52:37;1.50;;;1.43;;
13708;SDS011;54933;51.908;7.730;2022-07-24T07:55:03;1.40;;;1.40;;
13708;SDS011;54933;51.908;7.730;2022-07-24T07:57:29;1.67;;;1.57;;
13708;SDS011;54933;51.908;7.730;2022-07-24T07:59:55;1.50;;;1.40;;
13708;SDS011;54933;51.908;7.730;2022-07-24T08:02:20;1.30;;;1.30;;
13708;SDS011;54933;51.908;7.730;2022-07-24T08:04:46;1.70;;;1.60;;
13708;SDS011;54933;51.908;7.730;2022-07-24T08:07:11;1.70;;;1.60;;
13708;SDS011;54933;51.908;7.730;2022-07-24T08:09:36;1.50;;;1.43;;
13708;SDS011;54933;51.908;7.730;2022-07-24T08:12:02;1.50;;;1.40;;
13708;SDS011;54933;51.908;7.730;2022-07-24T08:14:28;1.30;;;1.30;;
13708;SDS011;54933;51.908;7.730;2022-07-24T08:16:54;1.63;;;1.53;;
13708;SDS011;54933;51.908;7.730;2022-07-24T08:19:19;1.60;;;1.50;;
13708;SDS011;54933;51.908;7.730;2022-07-24T08:21:44;1.40;;;1.40;;
13708;SDS011;54933;51.908;7.730;2022-07-24T08:24:10;1.50;;;1.50;;
13708;SDS011;54933;51.908;7.730;2022-07-24T08:26:36;1.20;;;1.20;;
13708;SDS011;54933;51.908;7.730;2022-07-24T08:29:01;1.70;;;1.60;;
13708;SDS011;54933;51.908;7.730;2022-07-24T08:31:27;1.60;;;1.50;;
13708;SDS011;54933;51.908;7.730;2022-07-24T08:33:52;1.30;;;1.30;;
13708;SDS011;54933;51.908;7.730;2022-07-24T08:36:18;1.30;;;1.30;;
13708;SDS011;54933;51.908;7.730;2022-07-24T08:38:43;1.23;;;1.23;;
13708;SDS011;54933;51.908;7.730;2022-07-24T08:41:08;1.57;;;1.57;;
13708;SDS011;54933;51.908;7.730;2022-07-24T08:43:34;1.20;;;1.20;;
13708;SDS011;54933;51.908;7.730;2022-07-24T08:45:59;1.57;;;1.50;;
13708;SDS011;54933;51.908;7.730;2022-07-24T08:48:27;1.57;;;1.47;;
13708;SDS011;54933;51.908;7.730;2022-07-24T08:50:53;1.47;;;1.40;;
13708;SDS011;54933;51.908;7.730;2022-07-24T08:53:20;1.77;;;1.67;;
13708;SDS011;54933;51.908;7.730;2022-07-24T08:55:46;1.30;;;1.30;;
13708;SDS011;54933;51.908;7.730;2022-07-24T08:58:12;2.53;;;1.33;;
13708;SDS011;54933;51.908;7.730;2022-07-24T09:00:37;1.60;;;1.50;;
13708;SDS011;54933;51.908;7.730;2022-07-24T09:03:02;1.77;;;1.67;;
13708;SDS011;54933;51.908;7.730;2022-07-24T09:05:28;1.33;;;1.33;;
13708;SDS011;54933;51.908;7.730;2022-07-24T09:10:33;1.57;;;1.47;;
13708;SDS011;54933;51.908;7.730;2022-07-24T09:12:59;1.50;;;1.50;;
13708;SDS011;54933;51.908;7.730;2022-07-24T09:15:44;1.73;;;1.63;;
13708;SDS011;54933;51.908;7.730;2022-07-24T09:18:26;1.70;;;1.60;;
13708;SDS011;54933;51.908;7.730;2022-07-24T09:20:57;1.90;;;1.80;;
13708;SDS011;54933;51.908;7.730;2022-07-24T09:23:23;1.47;;;1.37;;
13708;SDS011;54933;51.908;7.730;2022-07-24T09:25:50;1.80;;;1.70;;
13708;SDS011;54933;51.908;7.730;2022-07-24T09:28:17;1.90;;;1.80;;
13708;SDS011;54933;51.908;7.730;2022-07-24T09:30:43;1.40;;;1.30;;
13708;SDS011;54933;51.908;7.730;2022-07-24T09:38:05;1.70;;;1.60;;
13708;SDS011;54933;51.908;7.730;2022-07-24T09:40:32;1.47;;;1.47;;
13708;SDS011;54933;51.908;7.730;2022-07-24T09:43:11;1.70;;;1.60;;
13708;SDS011;54933;51.908;7.730;2022-07-24T09:48:39;1.87;;;1.77;;
13708;SDS011;54933;51.908;7.730;2022-07-24T09:51:10;1.83;;;1.73;;
13708;SDS011;54933;51.908;7.730;2022-07-24T09:53:38;2.03;;;1.93;;
13708;SDS011;54933;51.908;7.730;2022-07-24T09:56:15;1.97;;;1.87;;
13708;SDS011;54933;51.908;7.730;2022-07-24T10:01:09;1.97;;;1.87;;
13708;SDS011;54933;51.908;7.730;2022-07-24T10:03:35;2.03;;;1.90;;
13708;SDS011;54933;51.908;7.730;2022-07-24T10:06:06;2.00;;;1.90;;
13708;SDS011;54933;51.908;7.730;2022-07-24T10:08:34;1.93;;;1.83;;
13708;SDS011;54933;51.908;7.730;2022-07-24T10:11:01;1.67;;;1.60;;
13708;SDS011;54933;51.908;7.730;2022-07-24T10:13:27;2.17;;;2.07;;
13708;SDS011;54933;51.908;7.730;2022-07-24T10:21:15;2.03;;;1.93;;
13708;SDS011;54933;51.908;7.730;2022-07-24T10:23:53;2.10;;;2.00;;
13708;SDS011;54933;51.908;7.730;2022-07-24T10:26:29;1.93;;;1.83;;
13708;SDS011;54933;51.908;7.730;2022-07-24T10:29:04;1.90;;;1.80;;
13708;SDS011;54933;51.908;7.730;2022-07-24T10:31:41;2.50;;;2.30;;
13708;SDS011;54933;51.908;7.730;2022-07-24T10:34:13;2.10;;;2.00;;
13708;SDS011;54933;51.908;7.730;2022-07-24T10:36:44;2.20;;;2.10;;
13708;SDS011;54933;51.908;7.730;2022-07-24T10:39:18;1.90;;;1.80;;
13708;SDS011;54933;51.908;7.730;2022-07-24T10:42:01;2.00;;;1.90;;
13708;SDS011;54933;51.908;7.730;2022-07-24T10:44:28;2.30;;;2.20;;
13708;SDS011;54933;51.908;7.730;2022-07-24T10:47:09;1.80;;;1.70;;
13708;SDS011;54933;51.908;7.730;2022-07-24T10:49:47;2.00;;;1.90;;
13708;SDS011;54933;51.908;7.730;2022-07-24T10:52:25;1.80;;;1.70;;
13708;SDS011;54933;51.908;7.730;2022-07-24T10:57:52;2.40;;;2.20;;
13708;SDS011;54933;51.908;7.730;2022-07-24T11:01:25;2.20;;;2.10;;
13708;SDS011;54933;51.908;7.730;2022-07-24T11:03:21;2.10;;;2.00;;
13708;SDS011;54933;51.908;7.730;2022-07-24T11:06:04;2.10;;;2.00;;
13708;SDS011;54933;51.908;7.730;2022-07-24T11:08:31;2.60;;;2.40;;
13708;SDS011;54933;51.908;7.730;2022-07-24T11:11:08;1.90;;;1.80;;
13708;SDS011;54933;51.908;7.730;2022-07-24T11:13:38;2.97;;;1.90;;
13708;SDS011;54933;51.908;7.730;2022-07-24T11:18:41;2.00;;;1.90;;
13708;SDS011;54933;51.908;7.730;2022-07-24T11:21:35;2.00;;;1.90;;
13708;SDS011;54933;51.908;7.730;2022-07-24T11:26:40;2.13;;;1.90;;
13708;SDS011;54933;51.908;7.730;2022-07-24T11:31:44;2.30;;;2.20;;
13708;SDS011;54933;51.908;7.730;2022-07-24T11:34:11;2.33;;;2.20;;
13708;SDS011;54933;51.908;7.730;2022-07-24T11:36:39;2.20;;;2.00;;
13708;SDS011;54933;51.908;7.730;2022-07-24T11:39:09;2.10;;;2.00;;
13708;SDS011;54933;51.908;7.730;2022-07-24T11:41:50;2.47;;;2.37;;
13708;SDS011;54933;51.908;7.730;2022-07-24T11:44:23;2.17;;;2.07;;
13708;SDS011;54933;51.908;7.730;2022-07-24T11:46:53;2.20;;;2.10;;
13708;SDS011;54933;51.908;7.730;2022-07-24T11:49:21;2.00;;;1.90;;
13708;SDS011;54933;51.908;7.730;2022-07-24T11:51:48;2.10;;;2.00;;
13708;SDS011;54933;51.908;7.730;2022-07-24T11:54:19;2.10;;;2.00;;
13708;SDS011;54933;51.908;7.730;2022-07-24T11:56:47;2.43;;;2.30;;
13708;SDS011;54933;51.908;7.730;2022-07-24T11:59:46;2.20;;;2.10;;
13708;SDS011;54933;51.908;7.730;2022-07-24T12:02:06;2.30;;;2.10;;
13708;SDS011;54933;51.908;7.730;2022-07-24T12:04:33;2.30;;;2.20;;
13708;SDS011;54933;51.908;7.730;2022-07-24T12:06:59;2.20;;;2.10;;
13708;SDS011;54933;51.908;7.730;2022-07-24T12:09:24;2.33;;;2.23;;
13708;SDS011;54933;51.908;7.730;2022-07-24T12:11:50;2.37;;;2.27;;
13708;SDS011;54933;51.908;7.730;2022-07-24T12:14:18;2.60;;;2.40;;
13708;SDS011;54933;51.908;7.730;2022-07-24T12:16:44;2.73;;;2.53;;
13708;SDS011;54933;51.908;7.730;2022-07-24T12:19:17;3.33;;;2.80;;
13708;SDS011;54933;51.908;7.730;2022-07-24T12:21:44;2.13;;;2.03;;
13708;SDS011;54933;51.908;7.730;2022-07-24T12:24:11;2.57;;;2.47;;
13708;SDS011;54933;51.908;7.730;2022-07-24T12:29:17;2.73;;;2.60;;
13708;SDS011;54933;51.908;7.730;2022-07-24T12:31:43;2.60;;;2.40;;
13708;SDS011;54933;51.908;7.730;2022-07-24T12:34:08;2.40;;;2.30;;
13708;SDS011;54933;51.908;7.730;2022-07-24T12:36:34;3.00;;;2.80;;
13708;SDS011;54933;51.908;7.730;2022-07-24T12:39:00;2.70;;;2.50;;
13708;SDS011;54933;51.908;7.730;2022-07-24T12:41:26;3.00;;;2.67;;
13708;SDS011;54933;51.908;7.730;2022-07-24T12:43:53;3.10;;;2.90;;
13708;SDS011;54933;51.908;7.730;2022-07-24T12:46:31;2.57;;;2.43;;
13708;SDS011;54933;51.908;7.730;2022-07-24T12:49:10;2.70;;;2.50;;
13708;SDS011;54933;51.908;7.730;2022-07-24T12:51:58;2.60;;;2.40;;
13708;SDS011;54933;51.908;7.730;2022-07-24T12:54:32;2.70;;;2.50;;
13708;SDS011;54933;51.908;7.730;2022-07-24T12:57:00;3.00;;;2.80;;
13708;SDS011;54933;51.908;7.730;2022-07-24T12:59:30;3.27;;;2.97;;
13708;SDS011;54933;51.908;7.730;2022-07-24T13:01:58;2.73;;;2.53;;
13708;SDS011;54933;51.908;7.730;2022-07-24T13:04:27;3.17;;;2.97;;
13708;SDS011;54933;51.908;7.730;2022-07-24T13:06:54;2.53;;;2.37;;
13708;SDS011;54933;51.908;7.730;2022-07-24T13:09:21;2.87;;;2.67;;
13708;SDS011;54933;51.908;7.730;2022-07-24T13:11:48;2.90;;;2.70;;
13708;SDS011;54933;51.908;7.730;2022-07-24T13:14:16;2.80;;;2.60;;
13708;SDS011;54933;51.908;7.730;2022-07-24T13:16:43;2.67;;;2.47;;
13708;SDS011;54933;51.908;7.730;2022-07-24T13:19:10;2.90;;;2.70;;
13708;SDS011;54933;51.908;7.730;2022-07-24T13:21:37;2.90;;;2.70;;
13708;SDS011;54933;51.908;7.730;2022-07-24T13:24:03;2.77;;;2.57;;
13708;SDS011;54933;51.908;7.730;2022-07-24T13:26:32;2.60;;;2.40;;
13708;SDS011;54933;51.908;7.730;2022-07-24T13:28:57;2.93;;;2.73;;
13708;SDS011;54933;51.908;7.730;2022-07-24T13:31:23;2.80;;;2.60;;
13708;SDS011;54933;51.908;7.730;2022-07-24T13:33:49;3.10;;;2.83;;
13708;SDS011;54933;51.908;7.730;2022-07-24T13:36:15;2.87;;;2.67;;
13708;SDS011;54933;51.908;7.730;2022-07-24T13:38:41;3.10;;;2.90;;
13708;SDS011;54933;51.908;7.730;2022-07-24T13:41:06;2.50;;;2.40;;
13708;SDS011;54933;51.908;7.730;2022-07-24T13:43:32;2.87;;;2.67;;
13708;SDS011;54933;51.908;7.730;2022-07-24T13:45:57;3.40;;;2.53;;
13708;SDS011;54933;51.908;7.730;2022-07-24T13:48:22;2.90;;;2.70;;
13708;SDS011;54933;51.908;7.730;2022-07-24T13:50:48;2.53;;;2.33;;
13708;SDS011;54933;51.908;7.730;2022-07-24T13:53:13;2.50;;;2.40;;
13708;SDS011;54933;51.908;7.730;2022-07-24T13:55:39;2.83;;;2.63;;
13708;SDS011;54933;51.908;7.730;2022-07-24T13:58:04;3.00;;;2.80;;
13708;SDS011;54933;51.908;7.730;2022-07-24T14:00:30;3.13;;;2.80;;
13708;SDS011;54933;51.908;7.730;2022-07-24T14:02:55;4.13;;;2.90;;
13708;SDS011;54933;51.908;7.730;2022-07-24T14:05:24;2.90;;;2.70;;
13708;SDS011;54933;51.908;7.730;2022-07-24T14:07:50;3.13;;;2.93;;
13708;SDS011;54933;51.908;7.730;2022-07-24T14:10:16;2.70;;;2.50;;
13708;SDS011;54933;51.908;7.730;2022-07-24T14:12:41;2.83;;;2.63;;
13708;SDS011;54933;51.908;7.730;2022-07-24T14:15:07;2.90;;;2.70;;
13708;SDS011;54933;51.908;7.730;2022-07-24T14:17:37;2.60;;;2.43;;
13708;SDS011;54933;51.908;7.730;2022-07-24T14:20:03;3.00;;;2.80;;
13708;SDS011;54933;51.908;7.730;2022-07-24T14:22:29;2.67;;;2.57;;
13708;SDS011;54933;51.908;7.730;2022-07-24T14:24:54;3.03;;;2.83;;
13708;SDS011;54933;51.908;7.730;2022-07-24T14:27:19;4.00;;;2.67;;
13708;SDS011;54933;51.908;7.730;2022-07-24T14:29:44;3.53;;;3.23;;
13708;SDS011;54933;51.908;7.730;2022-07-24T14:32:10;2.90;;;2.70;;
13708;SDS011;54933;51.908;7.730;2022-07-24T14:34:35;3.53;;;3.23;;
13708;SDS011;54933;51.908;7.730;2022-07-24T14:37:00;2.77;;;2.67;;
13708;SDS011;54933;51.908;7.730;2022-07-24T14:39:26;3.30;;;3.00;;
13708;SDS011;54933;51.908;7.730;2022-07-24T14:41:53;2.67;;;2.57;;
13708;SDS011;54933;51.908;7.730;2022-07-24T14:44:18;3.20;;;3.00;;
13708;SDS011;54933;51.908;7.730;2022-07-24T14:46:44;3.50;;;3.27;;
13708;SDS011;54933;51.908;7.730;2022-07-24T14:49:09;3.03;;;2.83;;
13708;SDS011;54933;51.908;7.730;2022-07-24T14:51:35;2.97;;;2.77;;
13708;SDS011;54933;51.908;7.730;2022-07-24T14:54:01;3.10;;;2.90;;
13708;SDS011;54933;51.908;7.730;2022-07-24T14:56:26;2.87;;;2.67;;
13708;SDS011;54933;51.908;7.730;2022-07-24T14:58:51;2.53;;;2.33;;
13708;SDS011;54933;51.908;7.730;2022-07-24T15:01:17;3.20;;;3.00;;
13708;SDS011;54933;51.908;7.730;2022-07-24T15:03:42;4.07;;;3.17;;
13708;SDS011;54933;51.908;7.730;2022-07-24T15:06:08;3.03;;;2.83;;
13708;SDS011;54933;51.908;7.730;2022-07-24T15:08:33;2.83;;;2.63;;
13708;SDS011;54933;51.908;7.730;2022-07-24T15:10:58;3.03;;;2.83;;
13708;SDS011;54933;51.908;7.730;2022-07-24T15:13:23;3.20;;;2.67;;
13708;SDS011;54933;51.908;7.730;2022-07-24T15:15:49;2.97;;;2.77;;
13708;SDS011;54933;51.908;7.730;2022-07-24T15:18:16;3.27;;;3.07;;